Andrew, Illinois
Current Conditions -  °F | °C
As of 3:52 PM on Friday 24 Oct 2014 (Local Time) from KSPI Reporting Station
Clear Clear  
Wind Chill: 69°   Ceiling: Unl
Heat Index: 69°   Visibility: 10mi
Dew Point: 52°   Wind: 10mph
Humidity: 54%   Direction: 200°SSW
Pressure: 30.01"   Gusts: NA
Location:  39.854°N, 89.6295°W
Report Text: KSPI 242052Z 20009KT 10SM CLR 21/11 A3001 RMK AO2 SLP161 T02060111 56028
Loading
Personal Weather Stations






























Interactive Weather Map
Tropical Storm Tracking
New forecast layout! Learn more

10-Day Weather Forecast

Advertisements
Track Severe Weather on mobile